sensor_id;sensor_type;location;lat;lon;timestamp;temperature;humidity
55777;DHT22;54079;44.540;18.784;2024-02-16T00:01:01;6.70;99.90
55777;DHT22;54079;44.540;18.784;2024-02-16T00:03:27;6.60;99.90
55777;DHT22;54079;44.540;18.784;2024-02-16T00:05:54;6.70;99.90
55777;DHT22;54079;44.540;18.784;2024-02-16T00:08:20;6.70;99.90
55777;DHT22;54079;44.540;18.784;2024-02-16T00:10:46;6.60;99.90
55777;DHT22;54079;44.540;18.784;2024-02-16T00:13:13;6.40;99.90
55777;DHT22;54079;44.540;18.784;2024-02-16T00:15:39;6.50;99.90
55777;DHT22;54079;44.540;18.784;2024-02-16T00:18:05;6.50;99.90
55777;DHT22;54079;44.540;18.784;2024-02-16T00:20:31;6.60;99.90
55777;DHT22;54079;44.540;18.784;2024-02-16T00:22:58;6.70;99.90
55777;DHT22;54079;44.540;18.784;2024-02-16T00:25:26;6.70;99.90
55777;DHT22;54079;44.540;18.784;2024-02-16T00:27:52;6.80;99.90
55777;DHT22;54079;44.540;18.784;2024-02-16T00:30:19;6.70;99.90
55777;DHT22;54079;44.540;18.784;2024-02-16T00:32:45;6.70;99.90
55777;DHT22;54079;44.540;18.784;2024-02-16T00:35:12;6.70;99.90
55777;DHT22;54079;44.540;18.784;2024-02-16T00:37:37;6.70;99.90
55777;DHT22;54079;44.540;18.784;2024-02-16T00:40:04;6.80;99.90
55777;DHT22;54079;44.540;18.784;2024-02-16T00:42:32;6.80;99.90
55777;DHT22;54079;44.540;18.784;2024-02-16T00:44:58;6.60;99.90
55777;DHT22;54079;44.540;18.784;2024-02-16T00:47:26;6.60;99.90
55777;DHT22;54079;44.540;18.784;2024-02-16T00:49:55;6.70;99.90
55777;DHT22;54079;44.540;18.784;2024-02-16T00:52:22;6.80;99.90
55777;DHT22;54079;44.540;18.784;2024-02-16T00:54:49;6.60;99.90
55777;DHT22;54079;44.540;18.784;2024-02-16T00:57:15;6.50;99.90
55777;DHT22;54079;44.540;18.784;2024-02-16T00:59:42;6.50;99.90
55777;DHT22;54079;44.540;18.784;2024-02-16T01:02:08;6.50;99.90
55777;DHT22;54079;44.540;18.784;2024-02-16T01:04:36;6.60;99.90
55777;DHT22;54079;44.540;18.784;2024-02-16T01:07:02;6.60;99.90
55777;DHT22;54079;44.540;18.784;2024-02-16T01:09:28;6.40;99.90
55777;DHT22;54079;44.540;18.784;2024-02-16T01:11:54;6.30;99.90
55777;DHT22;54079;44.540;18.784;2024-02-16T01:14:20;6.50;99.90
55777;DHT22;54079;44.540;18.784;2024-02-16T01:16:46;6.50;99.90
55777;DHT22;54079;44.540;18.784;2024-02-16T01:19:12;6.50;99.90
55777;DHT22;54079;44.540;18.784;2024-02-16T01:21:39;6.40;99.90
55777;DHT22;54079;44.540;18.784;2024-02-16T01:24:05;6.20;99.90
55777;DHT22;54079;44.540;18.784;2024-02-16T01:26:32;6.40;99.90
55777;DHT22;54079;44.540;18.784;2024-02-16T01:28:58;6.60;99.90
55777;DHT22;54079;44.540;18.784;2024-02-16T01:31:25;6.50;99.90
55777;DHT22;54079;44.540;18.784;2024-02-16T01:33:51;6.40;99.90
55777;DHT22;54079;44.540;18.784;2024-02-16T01:36:18;6.50;99.90
55777;DHT22;54079;44.540;18.784;2024-02-16T01:38:44;6.60;99.90
55777;DHT22;54079;44.540;18.784;2024-02-16T01:41:10;6.70;99.90
55777;DHT22;54079;44.540;18.784;2024-02-16T01:43:36;6.70;99.90
55777;DHT22;54079;44.540;18.784;2024-02-16T01:46:02;6.60;99.90
55777;DHT22;54079;44.540;18.784;2024-02-16T01:48:29;6.60;99.90
55777;DHT22;54079;44.540;18.784;2024-02-16T01:50:55;6.70;99.90
55777;DHT22;54079;44.540;18.784;2024-02-16T01:53:22;6.60;99.90
55777;DHT22;54079;44.540;18.784;2024-02-16T01:55:49;6.70;99.90
55777;DHT22;54079;44.540;18.784;2024-02-16T01:58:15;6.80;99.90
55777;DHT22;54079;44.540;18.784;2024-02-16T02:00:41;6.70;99.90
55777;DHT22;54079;44.540;18.784;2024-02-16T02:03:08;6.80;99.90
55777;DHT22;54079;44.540;18.784;2024-02-16T02:05:34;6.70;99.90
55777;DHT22;54079;44.540;18.784;2024-02-16T02:08:09;6.70;99.90
55777;DHT22;54079;44.540;18.784;2024-02-16T02:10:36;6.70;99.90
55777;DHT22;54079;44.540;18.784;2024-02-16T02:13:02;6.60;99.90
55777;DHT22;54079;44.540;18.784;2024-02-16T02:15:28;6.70;99.90
55777;DHT22;54079;44.540;18.784;2024-02-16T02:17:54;6.60;99.90
55777;DHT22;54079;44.540;18.784;2024-02-16T02:20:20;6.60;99.90
55777;DHT22;54079;44.540;18.784;2024-02-16T02:22:45;6.50;99.90
55777;DHT22;54079;44.540;18.784;2024-02-16T02:25:11;6.60;99.90
55777;DHT22;54079;44.540;18.784;2024-02-16T02:27:38;6.60;99.90
55777;DHT22;54079;44.540;18.784;2024-02-16T02:30:05;6.60;99.90
55777;DHT22;54079;44.540;18.784;2024-02-16T02:32:32;6.60;99.90
55777;DHT22;54079;44.540;18.784;2024-02-16T02:34:58;6.50;99.90
55777;DHT22;54079;44.540;18.784;2024-02-16T02:37:24;6.50;99.90
55777;DHT22;54079;44.540;18.784;2024-02-16T02:39:50;6.60;99.90
55777;DHT22;54079;44.540;18.784;2024-02-16T02:42:16;6.60;99.90
55777;DHT22;54079;44.540;18.784;2024-02-16T02:44:42;6.60;99.90
55777;DHT22;54079;44.540;18.784;2024-02-16T02:47:18;6.50;99.90
55777;DHT22;54079;44.540;18.784;2024-02-16T02:49:44;6.50;99.90
55777;DHT22;54079;44.540;18.784;2024-02-16T02:52:10;6.30;99.90
55777;DHT22;54079;44.540;18.784;2024-02-16T02:54:36;6.30;99.90
55777;DHT22;54079;44.540;18.784;2024-02-16T02:57:03;6.30;99.90
55777;DHT22;54079;44.540;18.784;2024-02-16T02:59:29;6.40;99.90
55777;DHT22;54079;44.540;18.784;2024-02-16T03:01:55;6.50;99.90
55777;DHT22;54079;44.540;18.784;2024-02-16T03:04:21;6.40;99.90
55777;DHT22;54079;44.540;18.784;2024-02-16T03:06:47;6.20;99.90
55777;DHT22;54079;44.540;18.784;2024-02-16T03:09:13;6.20;99.90
55777;DHT22;54079;44.540;18.784;2024-02-16T03:11:39;6.40;99.90
55777;DHT22;54079;44.540;18.784;2024-02-16T03:14:05;6.40;99.90
55777;DHT22;54079;44.540;18.784;2024-02-16T03:16:32;6.40;99.90
55777;DHT22;54079;44.540;18.784;2024-02-16T03:18:58;6.40;99.90
55777;DHT22;54079;44.540;18.784;2024-02-16T03:21:24;6.30;99.90
55777;DHT22;54079;44.540;18.784;2024-02-16T03:23:50;6.50;99.90
55777;DHT22;54079;44.540;18.784;2024-02-16T03:26:17;6.60;99.90
55777;DHT22;54079;44.540;18.784;2024-02-16T03:28:44;6.50;99.90
55777;DHT22;54079;44.540;18.784;2024-02-16T03:31:21;6.40;99.90
55777;DHT22;54079;44.540;18.784;2024-02-16T03:33:48;6.20;99.90
55777;DHT22;54079;44.540;18.784;2024-02-16T03:36:15;6.20;99.90
55777;DHT22;54079;44.540;18.784;2024-02-16T03:38:42;6.30;99.90
55777;DHT22;54079;44.540;18.784;2024-02-16T03:41:12;6.20;99.90
55777;DHT22;54079;44.540;18.784;2024-02-16T03:43:40;6.10;99.90
55777;DHT22;54079;44.540;18.784;2024-02-16T03:46:06;6.10;99.90
55777;DHT22;54079;44.540;18.784;2024-02-16T03:48:32;6.30;99.90
55777;DHT22;54079;44.540;18.784;2024-02-16T03:50:57;6.40;99.90
55777;DHT22;54079;44.540;18.784;2024-02-16T03:53:24;6.40;99.90
55777;DHT22;54079;44.540;18.784;2024-02-16T03:55:50;6.20;99.90
55777;DHT22;54079;44.540;18.784;2024-02-16T03:58:16;6.20;99.90
55777;DHT22;54079;44.540;18.784;2024-02-16T04:00:42;6.00;99.90
55777;DHT22;54079;44.540;18.784;2024-02-16T04:03:08;5.90;99.90
55777;DHT22;54079;44.540;18.784;2024-02-16T04:05:35;6.00;99.90
55777;DHT22;54079;44.540;18.784;2024-02-16T04:08:04;6.00;99.90
55777;DHT22;54079;44.540;18.784;2024-02-16T04:10:30;5.90;99.90
55777;DHT22;54079;44.540;18.784;2024-02-16T04:12:56;5.70;99.90
55777;DHT22;54079;44.540;18.784;2024-02-16T04:15:22;5.70;99.90
55777;DHT22;54079;44.540;18.784;2024-02-16T04:17:48;5.50;99.90
55777;DHT22;54079;44.540;18.784;2024-02-16T04:20:18;5.70;99.90
55777;DHT22;54079;44.540;18.784;2024-02-16T04:22:44;5.80;99.90
55777;DHT22;54079;44.540;18.784;2024-02-16T04:25:10;5.80;99.90
55777;DHT22;54079;44.540;18.784;2024-02-16T04:27:36;5.70;99.90
55777;DHT22;54079;44.540;18.784;2024-02-16T04:30:03;5.60;99.90
55777;DHT22;54079;44.540;18.784;2024-02-16T04:32:30;5.50;99.90
55777;DHT22;54079;44.540;18.784;2024-02-16T04:34:56;5.30;99.90
55777;DHT22;54079;44.540;18.784;2024-02-16T04:37:22;5.30;99.90
55777;DHT22;54079;44.540;18.784;2024-02-16T04:39:49;5.40;99.90
55777;DHT22;54079;44.540;18.784;2024-02-16T04:42:16;5.50;99.90
55777;DHT22;54079;44.540;18.784;2024-02-16T04:44:42;5.60;99.90
55777;DHT22;54079;44.540;18.784;2024-02-16T04:47:08;5.70;99.90
55777;DHT22;54079;44.540;18.784;2024-02-16T04:49:37;5.80;99.90
55777;DHT22;54079;44.540;18.784;2024-02-16T04:52:04;5.70;99.90
55777;DHT22;54079;44.540;18.784;2024-02-16T04:54:30;5.60;99.90
55777;DHT22;54079;44.540;18.784;2024-02-16T04:56:56;5.50;99.90
55777;DHT22;54079;44.540;18.784;2024-02-16T04:59:21;5.40;99.90
55777;DHT22;54079;44.540;18.784;2024-02-16T05:01:47;5.50;99.90
55777;DHT22;54079;44.540;18.784;2024-02-16T05:04:14;5.50;99.90
55777;DHT22;54079;44.540;18.784;2024-02-16T05:06:46;5.50;99.90
55777;DHT22;54079;44.540;18.784;2024-02-16T05:09:12;5.60;99.90
55777;DHT22;54079;44.540;18.784;2024-02-16T05:11:45;5.50;99.90
55777;DHT22;54079;44.540;18.784;2024-02-16T05:14:11;5.50;99.90
55777;DHT22;54079;44.540;18.784;2024-02-16T05:16:42;5.60;99.90
55777;DHT22;54079;44.540;18.784;2024-02-16T05:19:08;5.70;99.90
55777;DHT22;54079;44.540;18.784;2024-02-16T05:21:34;5.80;99.90
55777;DHT22;54079;44.540;18.784;2024-02-16T05:24:01;5.80;99.90
55777;DHT22;54079;44.540;18.784;2024-02-16T05:26:27;5.80;99.90
55777;DHT22;54079;44.540;18.784;2024-02-16T05:28:53;5.90;99.90
55777;DHT22;54079;44.540;18.784;2024-02-16T05:31:19;5.90;99.90
55777;DHT22;54079;44.540;18.784;2024-02-16T05:33:48;5.80;99.90
55777;DHT22;54079;44.540;18.784;2024-02-16T05:36:17;5.60;99.90
55777;DHT22;54079;44.540;18.784;2024-02-16T05:38:46;5.60;99.90
55777;DHT22;54079;44.540;18.784;2024-02-16T05:41:12;5.80;99.90
55777;DHT22;54079;44.540;18.784;2024-02-16T05:43:39;5.70;99.90
55777;DHT22;54079;44.540;18.784;2024-02-16T05:46:15;5.70;99.90
55777;DHT22;54079;44.540;18.784;2024-02-16T05:48:42;5.80;99.90
55777;DHT22;54079;44.540;18.784;2024-02-16T05:51:08;5.80;99.90
55777;DHT22;54079;44.540;18.784;2024-02-16T05:53:35;5.80;99.90
55777;DHT22;54079;44.540;18.784;2024-02-16T05:56:01;5.90;99.90
55777;DHT22;54079;44.540;18.784;2024-02-16T05:58:27;6.00;99.90
55777;DHT22;54079;44.540;18.784;2024-02-16T06:00:54;6.00;99.90
55777;DHT22;54079;44.540;18.784;2024-02-16T06:03:20;6.10;99.90
55777;DHT22;54079;44.540;18.784;2024-02-16T06:05:47;6.00;99.90
55777;DHT22;54079;44.540;18.784;2024-02-16T06:08:14;5.80;99.90
55777;DHT22;54079;44.540;18.784;2024-02-16T06:10:43;5.80;99.90
55777;DHT22;54079;44.540;18.784;2024-02-16T06:13:09;6.00;99.90
55777;DHT22;54079;44.540;18.784;2024-02-16T06:15:35;6.10;99.90
55777;DHT22;54079;44.540;18.784;2024-02-16T06:18:02;6.20;99.90
55777;DHT22;54079;44.540;18.784;2024-02-16T06:20:28;6.00;99.90
55777;DHT22;54079;44.540;18.784;2024-02-16T06:22:55;5.90;99.90
55777;DHT22;54079;44.540;18.784;2024-02-16T06:25:21;6.10;99.90
55777;DHT22;54079;44.540;18.784;2024-02-16T06:27:47;6.20;99.90
55777;DHT22;54079;44.540;18.784;2024-02-16T06:30:13;6.30;99.90
55777;DHT22;54079;44.540;18.784;2024-02-16T06:32:42;6.40;99.90
55777;DHT22;54079;44.540;18.784;2024-02-16T06:35:08;6.40;99.90
55777;DHT22;54079;44.540;18.784;2024-02-16T06:37:34;6.50;99.90
55777;DHT22;54079;44.540;18.784;2024-02-16T06:40:03;6.50;99.90
55777;DHT22;54079;44.540;18.784;2024-02-16T06:42:30;6.60;99.90
55777;DHT22;54079;44.540;18.784;2024-02-16T06:44:56;6.60;99.90
55777;DHT22;54079;44.540;18.784;2024-02-16T06:47:22;6.80;99.90
55777;DHT22;54079;44.540;18.784;2024-02-16T06:49:51;7.00;99.90
55777;DHT22;54079;44.540;18.784;2024-02-16T06:52:17;7.10;99.90
55777;DHT22;54079;44.540;18.784;2024-02-16T06:54:42;7.10;99.90
55777;DHT22;54079;44.540;18.784;2024-02-16T06:57:08;7.00;99.90
55777;DHT22;54079;44.540;18.784;2024-02-16T06:59:34;7.10;99.90
55777;DHT22;54079;44.540;18.784;2024-02-16T07:02:00;7.20;99.90
55777;DHT22;54079;44.540;18.784;2024-02-16T07:04:26;7.30;99.90
55777;DHT22;54079;44.540;18.784;2024-02-16T07:06:52;7.30;99.90
55777;DHT22;54079;44.540;18.784;2024-02-16T07:09:18;7.20;99.90
55777;DHT22;54079;44.540;18.784;2024-02-16T07:11:44;7.20;99.90
55777;DHT22;54079;44.540;18.784;2024-02-16T07:14:12;7.60;99.90
55777;DHT22;54079;44.540;18.784;2024-02-16T07:16:38;8.20;99.90
55777;DHT22;54079;44.540;18.784;2024-02-16T07:19:04;8.80;99.90
55777;DHT22;54079;44.540;18.784;2024-02-16T07:21:30;9.40;99.90
55777;DHT22;54079;44.540;18.784;2024-02-16T07:23:56;9.60;99.90
55777;DHT22;54079;44.540;18.784;2024-02-16T07:26:23;10.30;99.40
55777;DHT22;54079;44.540;18.784;2024-02-16T07:28:49;12.30;96.20
55777;DHT22;54079;44.540;18.784;2024-02-16T07:31:15;16.20;90.70
55777;DHT22;54079;44.540;18.784;2024-02-16T07:33:42;21.00;76.80
55777;DHT22;54079;44.540;18.784;2024-02-16T07:36:08;24.70;66.70
55777;DHT22;54079;44.540;18.784;2024-02-16T07:38:34;27.20;60.00
55777;DHT22;54079;44.540;18.784;2024-02-16T07:41:00;29.00;55.70
55777;DHT22;54079;44.540;18.784;2024-02-16T07:43:27;30.00;54.20
55777;DHT22;54079;44.540;18.784;2024-02-16T07:45:53;31.50;52.00
55777;DHT22;54079;44.540;18.784;2024-02-16T07:48:22;33.00;50.40
55777;DHT22;54079;44.540;18.784;2024-02-16T07:50:49;33.80;47.70
55777;DHT22;54079;44.540;18.784;2024-02-16T07:53:18;34.50;47.40
55777;DHT22;54079;44.540;18.784;2024-02-16T07:55:44;35.00;46.40
55777;DHT22;54079;44.540;18.784;2024-02-16T07:58:09;35.10;45.40
55777;DHT22;54079;44.540;18.784;2024-02-16T08:00:36;36.40;45.70
55777;DHT22;54079;44.540;18.784;2024-02-16T08:03:02;37.00;44.90
55777;DHT22;54079;44.540;18.784;2024-02-16T08:05:28;37.20;43.70
55777;DHT22;54079;44.540;18.784;2024-02-16T08:07:54;37.90;44.10
55777;DHT22;54079;44.540;18.784;2024-02-16T08:10:21;38.30;43.40
55777;DHT22;54079;44.540;18.784;2024-02-16T08:12:48;38.60;43.80
55777;DHT22;54079;44.540;18.784;2024-02-16T08:15:14;39.00;42.70
55777;DHT22;54079;44.540;18.784;2024-02-16T08:17:40;38.80;42.30
55777;DHT22;54079;44.540;18.784;2024-02-16T08:20:07;39.30;42.60
55777;DHT22;54079;44.540;18.784;2024-02-16T08:22:33;39.10;42.40
55777;DHT22;54079;44.540;18.784;2024-02-16T08:24:59;39.30;41.60
55777;DHT22;54079;44.540;18.784;2024-02-16T08:27:26;39.50;40.80
55777;DHT22;54079;44.540;18.784;2024-02-16T08:29:52;39.90;41.20
55777;DHT22;54079;44.540;18.784;2024-02-16T08:32:18;40.40;41.20
55777;DHT22;54079;44.540;18.784;2024-02-16T08:34:46;40.40;41.40
55777;DHT22;54079;44.540;18.784;2024-02-16T08:37:14;40.60;41.10
55777;DHT22;54079;44.540;18.784;2024-02-16T08:39:40;41.20;41.70
55777;DHT22;54079;44.540;18.784;2024-02-16T08:42:07;41.50;40.90
55777;DHT22;54079;44.540;18.784;2024-02-16T08:44:34;41.10;41.10
55777;DHT22;54079;44.540;18.784;2024-02-16T08:47:01;41.30;40.70
55777;DHT22;54079;44.540;18.784;2024-02-16T08:49:27;41.30;40.50
55777;DHT22;54079;44.540;18.784;2024-02-16T08:51:53;41.10;39.70
55777;DHT22;54079;44.540;18.784;2024-02-16T08:54:19;41.70;40.40
55777;DHT22;54079;44.540;18.784;2024-02-16T08:56:45;42.00;40.30
55777;DHT22;54079;44.540;18.784;2024-02-16T08:59:11;41.50;40.40
55777;DHT22;54079;44.540;18.784;2024-02-16T09:01:38;41.60;40.10
55777;DHT22;54079;44.540;18.784;2024-02-16T09:04:05;42.40;40.40
55777;DHT22;54079;44.540;18.784;2024-02-16T09:06:31;39.10;38.10
55777;DHT22;54079;44.540;18.784;2024-02-16T09:08:57;39.20;40.10
55777;DHT22;54079;44.540;18.784;2024-02-16T09:11:23;39.20;40.30
55777;DHT22;54079;44.540;18.784;2024-02-16T09:13:50;39.80;40.20
55777;DHT22;54079;44.540;18.784;2024-02-16T09:16:16;39.80;40.60
55777;DHT22;54079;44.540;18.784;2024-02-16T09:18:42;38.80;39.60
55777;DHT22;54079;44.540;18.784;2024-02-16T09:21:08;37.00;41.30
55777;DHT22;54079;44.540;18.784;2024-02-16T09:23:35;37.50;41.30
55777;DHT22;54079;44.540;18.784;2024-02-16T09:26:01;34.90;41.10
55777;DHT22;54079;44.540;18.784;2024-02-16T09:28:28;35.40;41.30
55777;DHT22;54079;44.540;18.784;2024-02-16T09:30:57;35.90;42.00
55777;DHT22;54079;44.540;18.784;2024-02-16T09:33:24;35.20;41.20
55777;DHT22;54079;44.540;18.784;2024-02-16T09:35:50;33.60;41.40
55777;DHT22;54079;44.540;18.784;2024-02-16T09:38:16;33.90;41.70
55777;DHT22;54079;44.540;18.784;2024-02-16T09:40:43;32.30;42.70
55777;DHT22;54079;44.540;18.784;2024-02-16T09:43:10;28.90;43.80
55777;DHT22;54079;44.540;18.784;2024-02-16T09:45:37;25.40;46.80
55777;DHT22;54079;44.540;18.784;2024-02-16T09:48:07;23.50;48.80
55777;DHT22;54079;44.540;18.784;2024-02-16T09:50:35;21.80;50.70
55777;DHT22;54079;44.540;18.784;2024-02-16T09:53:04;20.90;52.10
55777;DHT22;54079;44.540;18.784;2024-02-16T09:55:32;20.40;53.80
55777;DHT22;54079;44.540;18.784;2024-02-16T09:58:02;18.40;53.00
55777;DHT22;54079;44.540;18.784;2024-02-16T10:00:28;18.50;56.70
55777;DHT22;54079;44.540;18.784;2024-02-16T10:02:54;18.60;57.00
55777;DHT22;54079;44.540;18.784;2024-02-16T10:05:21;18.20;55.00
55777;DHT22;54079;44.540;18.784;2024-02-16T10:07:47;18.20;58.40
55777;DHT22;54079;44.540;18.784;2024-02-16T10:10:27;18.20;57.70
55777;DHT22;54079;44.540;18.784;2024-02-16T10:13:02;18.20;58.80
55777;DHT22;54079;44.540;18.784;2024-02-16T10:15:30;17.50;55.70
55777;DHT22;54079;44.540;18.784;2024-02-16T10:20:25;17.10;59.80
55777;DHT22;54079;44.540;18.784;2024-02-16T10:23:11;17.40;59.50
55777;DHT22;54079;44.540;18.784;2024-02-16T10:25:39;16.50;56.60
55777;DHT22;54079;44.540;18.784;2024-02-16T10:28:10;17.10;58.20
55777;DHT22;54079;44.540;18.784;2024-02-16T10:30:40;17.40;58.20
55777;DHT22;54079;44.540;18.784;2024-02-16T10:33:08;17.40;61.60
55777;DHT22;54079;44.540;18.784;2024-02-16T10:35:37;17.50;60.10
55777;DHT22;54079;44.540;18.784;2024-02-16T10:38:06;17.20;56.90
55777;DHT22;54079;44.540;18.784;2024-02-16T10:40:42;17.30;55.90
55777;DHT22;54079;44.540;18.784;2024-02-16T10:43:09;17.30;55.50
55777;DHT22;54079;44.540;18.784;2024-02-16T10:45:37;17.50;59.30
55777;DHT22;54079;44.540;18.784;2024-02-16T10:48:04;17.60;59.40
55777;DHT22;54079;44.540;18.784;2024-02-16T10:50:32;17.70;57.90
55777;DHT22;54079;44.540;18.784;2024-02-16T10:53:03;17.50;54.00
55777;DHT22;54079;44.540;18.784;2024-02-16T10:55:30;17.50;53.60
55777;DHT22;54079;44.540;18.784;2024-02-16T10:57:57;17.70;56.50
55777;DHT22;54079;44.540;18.784;2024-02-16T11:00:24;17.70;56.80
55777;DHT22;54079;44.540;18.784;2024-02-16T11:02:56;17.60;56.40
55777;DHT22;54079;44.540;18.784;2024-02-16T11:05:40;17.70;56.80
55777;DHT22;54079;44.540;18.784;2024-02-16T11:08:20;17.70;57.00
55777;DHT22;54079;44.540;18.784;2024-02-16T11:10:59;17.80;56.10
55777;DHT22;54079;44.540;18.784;2024-02-16T11:13:27;17.70;53.50
55777;DHT22;54079;44.540;18.784;2024-02-16T11:16:03;17.40;53.40
55777;DHT22;54079;44.540;18.784;2024-02-16T11:18:37;17.60;56.80
55777;DHT22;54079;44.540;18.784;2024-02-16T11:21:05;17.50;52.50
55777;DHT22;54079;44.540;18.784;2024-02-16T11:23:35;17.70;57.30
55777;DHT22;54079;44.540;18.784;2024-02-16T11:26:06;17.80;53.90
55777;DHT22;54079;44.540;18.784;2024-02-16T11:28:37;18.00;56.00
55777;DHT22;54079;44.540;18.784;2024-02-16T11:31:04;18.20;54.50
55777;DHT22;54079;44.540;18.784;2024-02-16T11:33:30;17.90;51.90
55777;DHT22;54079;44.540;18.784;2024-02-16T11:36:01;18.10;51.10
55777;DHT22;54079;44.540;18.784;2024-02-16T11:38:27;18.10;52.40
55777;DHT22;54079;44.540;18.784;2024-02-16T11:40:58;18.20;52.00
55777;DHT22;54079;44.540;18.784;2024-02-16T11:43:25;18.30;49.90
55777;DHT22;54079;44.540;18.784;2024-02-16T11:45:52;18.20;48.90
55777;DHT22;54079;44.540;18.784;2024-02-16T11:48:25;18.20;49.80
55777;DHT22;54079;44.540;18.784;2024-02-16T11:51:03;18.10;52.70
55777;DHT22;54079;44.540;18.784;2024-02-16T11:53:30;18.20;50.80
55777;DHT22;54079;44.540;18.784;2024-02-16T11:55:57;18.20;50.80
55777;DHT22;54079;44.540;18.784;2024-02-16T11:58:24;18.40;50.40
55777;DHT22;54079;44.540;18.784;2024-02-16T12:00:51;18.40;49.60
55777;DHT22;54079;44.540;18.784;2024-02-16T12:03:21;18.40;49.70
55777;DHT22;54079;44.540;18.784;2024-02-16T12:05:55;18.60;48.80
55777;DHT22;54079;44.540;18.784;2024-02-16T12:08:22;18.70;49.50
55777;DHT22;54079;44.540;18.784;2024-02-16T12:10:49;18.80;49.90
55777;DHT22;54079;44.540;18.784;2024-02-16T12:13:21;18.60;51.30
55777;DHT22;54079;44.540;18.784;2024-02-16T12:15:51;18.70;49.50
55777;DHT22;54079;44.540;18.784;2024-02-16T12:18:24;18.80;49.20
55777;DHT22;54079;44.540;18.784;2024-02-16T12:21:04;18.90;49.90
55777;DHT22;54079;44.540;18.784;2024-02-16T12:23:36;18.90;48.80
55777;DHT22;54079;44.540;18.784;2024-02-16T12:26:02;18.70;47.80
55777;DHT22;54079;44.540;18.784;2024-02-16T12:28:30;18.80;48.90
55777;DHT22;54079;44.540;18.784;2024-02-16T12:31:00;18.60;45.90
55777;DHT22;54079;44.540;18.784;2024-02-16T12:33:26;18.70;48.80
55777;DHT22;54079;44.540;18.784;2024-02-16T12:35:53;18.90;47.80
55777;DHT22;54079;44.540;18.784;2024-02-16T12:38:20;18.90;48.60
55777;DHT22;54079;44.540;18.784;2024-02-16T12:40:51;18.90;47.70
55777;DHT22;54079;44.540;18.784;2024-02-16T12:43:17;18.60;46.70
55777;DHT22;54079;44.540;18.784;2024-02-16T12:45:45;17.90;46.60
55777;DHT22;54079;44.540;18.784;2024-02-16T12:48:11;17.90;47.50
55777;DHT22;54079;44.540;18.784;2024-02-16T12:50:40;18.10;49.30
55777;DHT22;54079;44.540;18.784;2024-02-16T12:53:07;18.40;48.60
55777;DHT22;54079;44.540;18.784;2024-02-16T12:55:33;18.50;46.20
55777;DHT22;54079;44.540;18.784;2024-02-16T12:57:59;18.60;46.40
55777;DHT22;54079;44.540;18.784;2024-02-16T13:00:25;18.70;46.90
55777;DHT22;54079;44.540;18.784;2024-02-16T13:02:51;18.80;45.90
55777;DHT22;54079;44.540;18.784;2024-02-16T13:05:18;18.90;46.40
55777;DHT22;54079;44.540;18.784;2024-02-16T13:07:44;18.90;47.10
55777;DHT22;54079;44.540;18.784;2024-02-16T13:10:10;19.00;46.30
55777;DHT22;54079;44.540;18.784;2024-02-16T13:12:37;19.00;44.60
55777;DHT22;54079;44.540;18.784;2024-02-16T13:15:04;19.00;46.90
55777;DHT22;54079;44.540;18.784;2024-02-16T13:17:31;18.50;44.30
55777;DHT22;54079;44.540;18.784;2024-02-16T13:19:56;18.50;45.30
55777;DHT22;54079;44.540;18.784;2024-02-16T13:22:37;18.70;48.50
55777;DHT22;54079;44.540;18.784;2024-02-16T13:25:03;18.70;48.30
55777;DHT22;54079;44.540;18.784;2024-02-16T13:27:30;18.80;49.00
55777;DHT22;54079;44.540;18.784;2024-02-16T13:29:56;18.70;48.80
55777;DHT22;54079;44.540;18.784;2024-02-16T13:32:22;18.70;48.90
55777;DHT22;54079;44.540;18.784;2024-02-16T13:34:50;18.50;48.10
55777;DHT22;54079;44.540;18.784;2024-02-16T13:37:16;18.60;48.40
55777;DHT22;54079;44.540;18.784;2024-02-16T13:39:42;18.60;48.30
55777;DHT22;54079;44.540;18.784;2024-02-16T13:42:08;18.60;48.00
55777;DHT22;54079;44.540;18.784;2024-02-16T13:44:35;18.60;48.50
55777;DHT22;54079;44.540;18.784;2024-02-16T13:47:01;18.80;49.10
55777;DHT22;54079;44.540;18.784;2024-02-16T13:49:26;18.60;49.50
55777;DHT22;54079;44.540;18.784;2024-02-16T13:51:52;18.50;48.70
55777;DHT22;54079;44.540;18.784;2024-02-16T13:54:19;18.40;49.30
55777;DHT22;54079;44.540;18.784;2024-02-16T13:56:46;18.40;50.00
55777;DHT22;54079;44.540;18.784;2024-02-16T13:59:12;18.60;52.90
55777;DHT22;54079;44.540;18.784;2024-02-16T14:01:38;18.50;51.70
55777;DHT22;54079;44.540;18.784;2024-02-16T14:04:05;18.40;51.20
55777;DHT22;54079;44.540;18.784;2024-02-16T14:06:31;18.20;52.30
55777;DHT22;54079;44.540;18.784;2024-02-16T14:08:56;18.30;51.50
55777;DHT22;54079;44.540;18.784;2024-02-16T14:11:23;18.20;52.80
55777;DHT22;54079;44.540;18.784;2024-02-16T14:13:49;18.20;52.60
55777;DHT22;54079;44.540;18.784;2024-02-16T14:16:16;18.30;54.00
55777;DHT22;54079;44.540;18.784;2024-02-16T14:18:42;18.20;53.30
55777;DHT22;54079;44.540;18.784;2024-02-16T14:21:08;18.20;53.10
55777;DHT22;54079;44.540;18.784;2024-02-16T14:23:34;18.00;53.40
55777;DHT22;54079;44.540;18.784;2024-02-16T14:26:00;17.90;54.10
55777;DHT22;54079;44.540;18.784;2024-02-16T14:28:26;17.90;55.00
55777;DHT22;54079;44.540;18.784;2024-02-16T14:30:52;17.80;55.10
55777;DHT22;54079;44.540;18.784;2024-02-16T14:33:18;17.80;55.00
55777;DHT22;54079;44.540;18.784;2024-02-16T14:35:44;17.70;55.50
55777;DHT22;54079;44.540;18.784;2024-02-16T14:38:11;17.80;56.40
55777;DHT22;54079;44.540;18.784;2024-02-16T14:40:39;17.90;56.10
55777;DHT22;54079;44.540;18.784;2024-02-16T14:43:05;17.90;56.50
55777;DHT22;54079;44.540;18.784;2024-02-16T14:45:31;17.80;56.00
55777;DHT22;54079;44.540;18.784;2024-02-16T14:47:57;17.70;57.00
55777;DHT22;54079;44.540;18.784;2024-02-16T14:50:23;17.70;56.50
55777;DHT22;54079;44.540;18.784;2024-02-16T14:52:50;17.60;56.50
55777;DHT22;54079;44.540;18.784;2024-02-16T14:55:16;17.60;56.80
55777;DHT22;54079;44.540;18.784;2024-02-16T14:57:43;17.60;56.50
55777;DHT22;54079;44.540;18.784;2024-02-16T15:00:12;17.50;57.00
55777;DHT22;54079;44.540;18.784;2024-02-16T15:02:39;17.20;57.50
55777;DHT22;54079;44.540;18.784;2024-02-16T15:05:07;17.10;57.40
55777;DHT22;54079;44.540;18.784;2024-02-16T15:07:33;17.10;57.70
55777;DHT22;54079;44.540;18.784;2024-02-16T15:10:00;17.00;58.20
55777;DHT22;54079;44.540;18.784;2024-02-16T15:12:26;17.00;57.70
55777;DHT22;54079;44.540;18.784;2024-02-16T15:14:53;16.90;57.90
55777;DHT22;54079;44.540;18.784;2024-02-16T15:17:19;16.80;58.10
55777;DHT22;54079;44.540;18.784;2024-02-16T15:19:45;16.80;58.70
55777;DHT22;54079;44.540;18.784;2024-02-16T15:22:11;16.70;58.60
55777;DHT22;54079;44.540;18.784;2024-02-16T15:24:37;16.70;59.20